createdAt,value
2022-10-05T00:01:29.954Z,12.00
2022-10-05T00:06:03.867Z,11.90
2022-10-05T00:10:38.898Z,11.90
2022-10-05T00:15:15.900Z,11.90
2022-10-05T00:19:50.866Z,11.90
2022-10-05T00:24:18.008Z,11.90
2022-10-05T00:28:52.870Z,11.90
2022-10-05T00:33:26.910Z,11.90
2022-10-05T00:38:02.846Z,11.90
2022-10-05T00:42:49.839Z,11.90
2022-10-05T00:47:39.185Z,11.90
2022-10-05T00:52:19.829Z,11.80
2022-10-05T00:57:13.848Z,11.80
2022-10-05T01:01:47.433Z,11.80
2022-10-05T01:06:31.879Z,11.70
2022-10-05T01:11:15.831Z,11.70
2022-10-05T01:15:57.845Z,11.70
2022-10-05T01:20:45.836Z,11.80
2022-10-05T01:25:30.808Z,11.70
2022-10-05T01:30:14.896Z,11.70
2022-10-05T01:34:51.837Z,11.80
2022-10-05T01:39:27.013Z,11.70
2022-10-05T01:44:04.804Z,11.80
2022-10-05T01:48:58.846Z,11.80
2022-10-05T01:53:41.833Z,11.80
2022-10-05T01:58:24.773Z,11.70
2022-10-05T02:03:04.775Z,11.70
2022-10-05T02:07:44.790Z,11.70
2022-10-05T02:12:22.814Z,11.60
2022-10-05T02:16:58.831Z,11.50
2022-10-05T02:21:32.771Z,11.40
2022-10-05T02:26:10.782Z,11.40
2022-10-05T02:30:44.441Z,11.40
2022-10-05T02:35:26.763Z,11.30
2022-10-05T02:40:15.772Z,11.30
2022-10-05T02:44:59.779Z,11.20
2022-10-05T02:49:40.773Z,11.20
2022-10-05T02:54:22.770Z,11.30
2022-10-05T02:59:08.789Z,11.40
2022-10-05T03:03:51.767Z,11.30
2022-10-05T03:08:28.732Z,11.30
2022-10-05T03:13:09.729Z,11.30
2022-10-05T03:17:50.743Z,11.30
2022-10-05T03:22:34.736Z,11.20
2022-10-05T03:27:09.534Z,11.20
2022-10-05T03:31:48.766Z,11.20
2022-10-05T03:36:32.736Z,11.10
2022-10-05T03:41:13.788Z,11.10
2022-10-05T03:45:54.778Z,11.10
2022-10-05T03:50:46.723Z,11.10
2022-10-05T03:55:25.746Z,11.10
2022-10-05T04:00:10.776Z,11.10
2022-10-05T04:05:03.728Z,11.10
2022-10-05T04:09:42.706Z,11.10
2022-10-05T04:14:21.689Z,11.00
2022-10-05T04:19:02.691Z,11.00
2022-10-05T04:23:40.878Z,11.00
2022-10-05T04:28:21.760Z,11.00
2022-10-05T04:32:57.680Z,11.10
2022-10-05T04:37:47.698Z,11.10
2022-10-05T04:42:29.706Z,11.10
2022-10-05T04:47:17.697Z,11.10
2022-10-05T04:51:58.672Z,11.10
2022-10-05T04:56:42.736Z,11.10
2022-10-05T05:01:30.682Z,11.10
2022-10-05T05:06:17.330Z,11.10
2022-10-05T05:11:34.673Z,11.10
2022-10-05T05:16:16.728Z,11.10
2022-10-05T05:21:04.667Z,11.10
2022-10-05T05:25:45.639Z,11.10
2022-10-05T05:30:30.646Z,11.10
2022-10-05T05:35:21.654Z,11.10
2022-10-05T05:40:06.655Z,11.20
2022-10-05T05:44:46.623Z,11.20
2022-10-05T05:49:29.666Z,11.30
2022-10-05T05:54:28.657Z,11.40
2022-10-05T05:59:01.778Z,11.50
2022-10-05T06:03:41.628Z,11.70
2022-10-05T06:08:21.673Z,11.70
2022-10-05T06:13:11.645Z,11.90
2022-10-05T06:17:53.616Z,11.90
2022-10-05T06:22:33.622Z,12.00
2022-10-05T06:27:36.690Z,12.20
2022-10-05T06:32:14.020Z,12.30
2022-10-05T06:36:55.590Z,12.70
2022-10-05T06:41:38.610Z,13.20
2022-10-05T06:46:23.696Z,13.60
2022-10-05T06:51:38.638Z,14.50
2022-10-05T06:56:22.587Z,15.90
2022-10-05T07:01:00.607Z,16.80
2022-10-05T07:06:07.576Z,17.10
2022-10-05T07:10:52.574Z,16.90
2022-10-05T07:15:48.561Z,17.60
2022-10-05T07:20:26.641Z,18.60
2022-10-05T07:25:09.626Z,19.60
2022-10-05T07:29:46.618Z,20.10
2022-10-05T07:34:25.556Z,20.40
2022-10-05T07:39:07.583Z,20.60
2022-10-05T07:44:02.009Z,20.80
2022-10-05T07:48:51.620Z,21.20
2022-10-05T07:53:30.560Z,21.90
2022-10-05T07:58:19.628Z,22.30
2022-10-05T08:02:59.586Z,22.40
2022-10-05T08:07:37.581Z,22.10
2022-10-05T08:12:23.571Z,22.00
2022-10-05T08:16:53.281Z,21.90
2022-10-05T08:21:28.536Z,22.30
2022-10-05T08:26:12.529Z,22.40
2022-10-05T08:30:49.611Z,22.10
2022-10-05T08:35:33.525Z,21.80
2022-10-05T08:40:12.750Z,21.30
2022-10-05T08:45:11.553Z,20.90
2022-10-05T08:50:15.546Z,20.50
2022-10-05T08:55:06.525Z,20.50
2022-10-05T09:00:10.531Z,20.80
2022-10-05T09:04:51.243Z,20.70
2022-10-05T09:09:45.535Z,20.40
2022-10-05T09:14:35.508Z,20.20
2022-10-05T09:19:44.503Z,20.10
2022-10-05T09:24:35.517Z,20.10
2022-10-05T09:29:38.556Z,20.00
2022-10-05T09:34:38.517Z,20.10
2022-10-05T09:39:38.508Z,20.20
2022-10-05T09:44:57.512Z,20.30
2022-10-05T09:50:27.578Z,20.40
2022-10-05T09:55:41.508Z,21.50
2022-10-05T10:00:30.509Z,23.00
2022-10-05T10:05:41.462Z,23.70
2022-10-05T10:10:39.469Z,24.20
2022-10-05T10:15:48.568Z,25.10
2022-10-05T10:20:38.492Z,26.20
2022-10-05T10:25:38.485Z,27.30
2022-10-05T10:30:39.512Z,27.90
2022-10-05T10:35:34.499Z,27.60
2022-10-05T10:40:33.506Z,27.30
2022-10-05T10:45:52.473Z,27.80
2022-10-05T10:51:13.477Z,28.30
2022-10-05T10:55:54.666Z,28.50
2022-10-05T11:00:53.485Z,29.10
2022-10-05T11:06:05.466Z,29.90
2022-10-05T11:11:06.448Z,29.80
2022-10-05T11:16:19.765Z,30.10
2022-10-05T11:21:24.472Z,30.00
2022-10-05T11:26:17.473Z,29.00
2022-10-05T11:31:13.515Z,27.80
2022-10-05T11:36:15.462Z,27.40
2022-10-05T11:41:40.446Z,27.50
2022-10-05T11:46:22.523Z,27.10
2022-10-05T11:51:19.450Z,26.60
2022-10-05T11:55:57.425Z,25.90
2022-10-05T12:00:36.445Z,25.20
2022-10-05T12:05:17.440Z,24.60
2022-10-05T12:10:23.506Z,24.30
2022-10-05T12:15:07.424Z,24.10
2022-10-05T12:19:47.486Z,23.80
2022-10-05T12:24:26.517Z,23.50
2022-10-05T12:29:05.413Z,23.30
2022-10-05T12:33:45.441Z,23.00
2022-10-05T12:38:31.432Z,22.70
2022-10-05T12:43:15.428Z,22.50
2022-10-05T12:48:05.429Z,22.20
2022-10-05T12:53:02.388Z,22.10
2022-10-05T12:57:49.416Z,21.90
2022-10-05T13:02:37.397Z,21.80
2022-10-05T13:07:25.415Z,21.70
2022-10-05T13:12:03.403Z,21.60
2022-10-05T13:16:50.220Z,21.50
2022-10-05T13:21:26.774Z,21.50
2022-10-05T13:26:04.362Z,21.40
2022-10-05T13:30:38.385Z,21.30
2022-10-05T13:35:29.397Z,21.30
2022-10-05T13:40:16.386Z,21.20
2022-10-05T13:44:57.372Z,21.30
2022-10-05T13:49:37.433Z,21.20
2022-10-05T13:54:22.362Z,21.30
2022-10-05T13:59:00.348Z,21.30
2022-10-05T14:03:44.654Z,21.20
2022-10-05T14:08:18.312Z,21.20
2022-10-05T14:12:55.359Z,21.20
2022-10-05T14:17:47.355Z,21.20
2022-10-05T14:22:28.351Z,21.20
2022-10-05T14:27:03.345Z,21.20
2022-10-05T14:31:46.388Z,21.10
2022-10-05T14:36:25.793Z,21.10
2022-10-05T14:40:59.352Z,21.20
2022-10-05T14:45:36.386Z,21.10
2022-10-05T14:50:32.508Z,21.20
2022-10-05T14:55:12.424Z,21.10
2022-10-05T15:00:11.723Z,21.10
2022-10-05T15:04:52.353Z,21.20
2022-10-05T15:09:51.332Z,21.20
2022-10-05T15:14:30.331Z,21.20
2022-10-05T15:19:10.364Z,21.10
2022-10-05T15:23:53.530Z,21.10
2022-10-05T15:28:44.405Z,21.10
2022-10-05T15:33:25.434Z,21.10
2022-10-05T15:38:04.385Z,21.00
2022-10-05T15:42:44.363Z,21.00
2022-10-05T15:47:25.415Z,20.90
2022-10-05T15:52:08.317Z,20.70
2022-10-05T15:56:47.294Z,20.60
2022-10-05T16:01:50.471Z,20.40
2022-10-05T16:07:08.618Z,20.30
2022-10-05T16:12:15.399Z,20.10
2022-10-05T16:17:04.723Z,19.80
2022-10-05T16:21:54.540Z,19.70
2022-10-05T16:26:38.290Z,19.50
2022-10-05T16:31:24.403Z,19.30
2022-10-05T16:35:58.542Z,19.20
2022-10-05T16:40:42.322Z,19.00
2022-10-05T16:45:44.661Z,18.80
2022-10-05T16:50:28.338Z,18.70
2022-10-05T16:55:06.313Z,18.50
2022-10-05T17:00:19.267Z,18.40
2022-10-05T17:05:04.412Z,18.30
2022-10-05T17:10:09.371Z,18.20
2022-10-05T17:14:54.293Z,18.10
2022-10-05T17:19:46.299Z,18.10
2022-10-05T17:24:41.348Z,18.00
2022-10-05T17:29:17.400Z,17.90
2022-10-05T17:34:41.250Z,17.90
2022-10-05T17:39:17.264Z,17.80
2022-10-05T17:43:51.293Z,17.80
2022-10-05T17:49:13.388Z,17.70
2022-10-05T17:54:08.385Z,17.70
2022-10-05T17:59:11.352Z,17.60
2022-10-05T18:03:56.274Z,17.50
2022-10-05T18:08:34.413Z,17.50
2022-10-05T18:13:48.215Z,17.40
2022-10-05T18:18:45.227Z,17.40
2022-10-05T18:23:36.274Z,17.30
2022-10-05T18:28:22.383Z,17.30
2022-10-05T18:33:38.234Z,17.20
2022-10-05T18:38:23.488Z,17.20
2022-10-05T18:43:10.206Z,17.20
2022-10-05T18:47:55.207Z,17.20
2022-10-05T18:52:43.174Z,17.20
2022-10-05T18:57:43.200Z,17.20
2022-10-05T19:02:26.499Z,17.20
2022-10-05T19:07:15.231Z,17.30
2022-10-05T19:11:58.423Z,17.30
2022-10-05T19:16:53.182Z,17.30
2022-10-05T19:21:38.266Z,17.30
2022-10-05T19:26:21.154Z,17.30
2022-10-05T19:31:09.238Z,17.40
2022-10-05T19:35:56.177Z,17.40
2022-10-05T19:40:29.346Z,17.40
2022-10-05T19:45:09.151Z,17.40
2022-10-05T19:49:51.168Z,17.30
2022-10-05T19:54:36.169Z,17.30
2022-10-05T19:59:19.156Z,17.30
2022-10-05T20:03:53.150Z,17.20
2022-10-05T20:08:29.466Z,17.20
2022-10-05T20:13:05.135Z,17.10
2022-10-05T20:17:56.153Z,17.10
2022-10-05T20:22:53.169Z,17.10
2022-10-05T20:27:46.563Z,17.20
2022-10-05T20:32:28.550Z,17.20
2022-10-05T20:37:03.149Z,17.30
2022-10-05T20:41:37.138Z,17.20
2022-10-05T20:46:10.154Z,17.20
2022-10-05T20:50:45.134Z,17.10
2022-10-05T20:55:19.113Z,17.10
2022-10-05T20:59:46.334Z,17.10
2022-10-05T21:04:19.247Z,17.10
2022-10-05T21:08:54.325Z,17.10
2022-10-05T21:13:27.099Z,17.10
2022-10-05T21:18:03.120Z,17.00
2022-10-05T21:22:36.083Z,17.00
2022-10-05T21:27:11.093Z,17.00
2022-10-05T21:31:38.297Z,17.00
2022-10-05T21:36:12.099Z,16.90
2022-10-05T21:40:45.089Z,16.90
2022-10-05T21:45:22.105Z,16.80
2022-10-05T21:49:56.111Z,16.80
2022-10-05T21:54:35.101Z,16.70
2022-10-05T21:59:11.090Z,16.70
2022-10-05T22:03:46.122Z,16.60
2022-10-05T22:08:29.510Z,16.50
2022-10-05T22:13:03.039Z,16.40
2022-10-05T22:17:38.102Z,16.30
2022-10-05T22:22:13.051Z,16.20
2022-10-05T22:26:48.057Z,16.20
2022-10-05T22:31:24.119Z,16.10
2022-10-05T22:35:57.092Z,16.00
2022-10-05T22:40:26.209Z,16.00
2022-10-05T22:44:59.065Z,15.90
2022-10-05T22:49:33.054Z,15.90
2022-10-05T22:54:06.028Z,15.90
2022-10-05T22:58:41.056Z,15.90
2022-10-05T23:03:15.039Z,15.90
2022-10-05T23:07:57.054Z,16.00
2022-10-05T23:12:30.034Z,16.00
2022-10-05T23:17:05.080Z,16.10
2022-10-05T23:21:38.025Z,16.10
2022-10-05T23:26:14.010Z,16.20
2022-10-05T23:30:47.026Z,16.20
2022-10-05T23:35:17.250Z,16.30
2022-10-05T23:39:50.014Z,16.30
2022-10-05T23:44:24.012Z,16.30
2022-10-05T23:48:58.036Z,16.30
2022-10-05T23:53:34.027Z,16.20
2022-10-05T23:58:07.046Z,16.20
